world map with TBO marked

TBO - Airport

This information may not be accurate or current and is not valid for navigation or flight planning. No warranty of fitness for any purpose is made or implied.

flag of Tanzania

Donate via PayPal

Additional information is available on the NEW Great Circle Mapper

Location
City:  Tabora, Tabora, Tanzania
Name:Tabora Airport
ICAO / IATA:HTTB / TBO

Details
Type:Airport (Aerodrome, Airfield)
Latitude:5°04'35"S (-5.076388)
Longitude:32°50'00"E (32.833333)
Elevation:3868 ft (1179 m)
Runways:2
Longest:8399 × 141 ft (2560 × 43 m)

Time
Timezone:UTC+3 (DST+5)
Local Time:

Weather
METAR:HTTB  041300Z 09004KT 9999 SCT024 FEW025CB BKN250 29/19 Q1014
TAF:HTTB  040500Z 0406/0506 00000KT 9999 FEW019 SCT080

Related Locations
Nearby:
Farthest:CXI: 11714 mi / 18853 km
Christmas Island (Kiritimati) [Cassidy Intl], L, KI

Find:

   beyond  
but within

Other Information
Maps:
Sources:

  


 


Great Circle Mapper   Great Circle Mapper
Great Circle Mapper FAQ   Great Circle Mapper FAQ
  Karl's Home Page
KLSē   KLSē Home
   GC on Facebook
Airlines of the World   Airlines of the World
Donate via PayPal


Copyright © 2004-2019, Karl L. Swartz. All rights reserved.
All trademarks mentioned herein belong to their respective owners.

Please see credits for attribution and copyright information.

Karl Swartz <karl@kls2.com>
  Powered by FreeBSD
Valid HTML 4.01!
Labeled with ICRA
hCard Microformat
Geo Microformat